createdAt,value
2019-04-23T05:31:40.400Z,70.93
2019-04-23T05:35:00.009Z,70.85
2019-04-23T05:41:16.626Z,69.32
2019-04-23T05:44:21.684Z,69.05
2019-04-23T05:47:29.092Z,68.43
2019-04-23T05:50:44.772Z,68.36
2019-04-23T05:57:02.005Z,66.95
2019-04-23T05:59:54.739Z,66.59
2019-04-23T06:03:11.986Z,65.45
2019-04-23T06:06:20.264Z,65.33
2019-04-23T06:09:25.305Z,64.60
2019-04-23T06:12:31.397Z,63.89
2019-04-23T06:15:41.769Z,62.98
2019-04-23T06:25:30.773Z,61.28
2019-04-23T06:28:14.631Z,60.73
2019-04-23T06:31:24.822Z,60.39
2019-04-23T06:34:31.423Z,59.02
2019-04-23T06:38:16.272Z,59.02
2019-04-23T06:40:47.602Z,58.79
2019-04-23T06:44:05.801Z,58.42
2019-04-23T06:50:16.567Z,57.68
2019-04-23T06:53:21.494Z,57.12
2019-04-23T06:56:37.447Z,56.93
2019-04-23T06:59:37.245Z,56.01
2019-04-23T07:02:44.516Z,56.87
2019-04-23T07:12:21.953Z,56.16
2019-04-23T07:15:42.862Z,54.95
2019-04-23T07:18:35.888Z,54.45
2019-04-23T07:21:55.900Z,53.43
2019-04-23T07:25:00.327Z,52.79
2019-04-23T07:28:14.611Z,53.48
2019-04-23T07:31:20.306Z,52.14
2019-04-23T07:34:18.097Z,50.45
2019-04-23T07:37:37.223Z,49.96
2019-04-23T07:41:09.693Z,48.22
2019-04-23T07:47:46.581Z,48.24
2019-04-23T07:54:08.091Z,45.00
2019-04-23T07:57:15.260Z,43.99
2019-04-23T08:00:23.662Z,44.13
2019-04-23T08:03:22.669Z,43.12
2019-04-23T08:06:30.007Z,41.76
2019-04-23T08:09:51.413Z,41.76
2019-04-23T08:12:56.256Z,40.18
2019-04-23T08:15:55.761Z,40.71
2019-04-23T08:19:29.287Z,38.37
2019-04-23T08:25:56.403Z,37.48
2019-04-23T08:35:06.449Z,37.15
2019-04-23T08:38:27.960Z,37.00
2019-04-23T08:41:33.448Z,36.39
2019-04-23T08:45:05.542Z,36.36
2019-04-23T08:48:15.604Z,35.23
2019-04-23T08:51:31.506Z,35.43
2019-04-23T08:54:41.319Z,35.31
2019-04-23T08:57:33.780Z,33.30
2019-04-23T09:00:51.912Z,34.87
2019-04-23T09:03:45.872Z,33.51
2019-04-23T09:07:04.947Z,32.32
2019-04-23T09:10:12.998Z,32.84
2019-04-23T09:16:29.519Z,30.95
2019-04-23T09:19:42.831Z,30.49
2019-04-23T09:29:02.495Z,27.76
2019-04-23T09:32:40.189Z,28.10
2019-04-23T09:35:57.275Z,29.35
2019-04-23T09:39:37.713Z,28.91
2019-04-23T09:43:08.902Z,29.10
2019-04-23T09:46:23.533Z,25.96
2019-04-23T09:49:32.469Z,27.71
2019-04-23T09:52:48.795Z,26.95
2019-04-23T09:55:43.699Z,26.62
2019-04-23T09:59:02.965Z,26.11
2019-04-23T10:01:59.481Z,27.78
2019-04-23T10:05:03.285Z,26.60
2019-04-23T10:08:03.045Z,26.60
2019-04-23T10:11:00.835Z,26.96
2019-04-23T10:14:08.270Z,26.70
2019-04-23T10:17:17.968Z,25.33
2019-04-23T10:20:26.656Z,25.47
2019-04-23T10:23:33.508Z,25.13
2019-04-23T10:26:40.152Z,25.04
2019-04-23T10:29:47.854Z,24.82
2019-04-23T10:32:55.893Z,24.59
2019-04-23T10:36:08.833Z,23.91
2019-04-23T10:39:20.798Z,23.21
2019-04-23T10:42:21.858Z,23.21
2019-04-23T10:45:57.629Z,24.35
2019-04-23T10:52:53.722Z,24.21
2019-04-23T10:56:07.434Z,23.98
2019-04-23T10:59:03.216Z,23.79
2019-04-23T11:05:29.167Z,23.70
2019-04-23T11:08:30.775Z,23.70
2019-04-23T11:11:56.628Z,22.97
2019-04-23T11:15:18.284Z,24.10
2019-04-23T11:18:34.881Z,25.20
2019-04-23T11:21:34.269Z,25.13
2019-04-23T11:27:46.978Z,23.36
2019-04-23T11:30:55.258Z,22.53
2019-04-23T11:34:28.203Z,23.09
2019-04-23T11:37:25.054Z,22.97
2019-04-23T11:43:32.738Z,22.01
2019-04-23T11:50:01.607Z,22.36
2019-04-23T11:52:54.405Z,22.36
2019-04-23T11:56:12.168Z,22.87
2019-04-23T11:59:29.138Z,21.93
2019-04-23T12:02:45.301Z,21.22
2019-04-23T12:06:21.898Z,20.58
2019-04-23T12:09:40.313Z,22.24
2019-04-23T12:15:47.839Z,22.04
2019-04-23T12:19:27.143Z,21.50
2019-04-23T12:22:10.466Z,22.51
2019-04-23T12:28:20.655Z,21.15
2019-04-23T12:31:36.448Z,20.84
2019-04-23T12:34:44.305Z,20.61
2019-04-23T12:38:15.481Z,20.05
2019-04-23T12:41:21.137Z,20.83
2019-04-23T12:44:31.532Z,19.09
2019-04-23T12:47:49.177Z,19.62
2019-04-23T12:50:48.499Z,19.11
2019-04-23T12:53:49.336Z,18.91
2019-04-23T12:57:17.469Z,19.27
2019-04-23T13:00:19.146Z,18.65
2019-04-23T13:03:16.948Z,18.46
2019-04-23T13:06:20.424Z,18.57
2019-04-23T13:12:57.646Z,18.10
2019-04-23T13:15:53.678Z,18.37
2019-04-23T13:19:14.675Z,17.33
2019-04-23T13:25:39.851Z,18.16
2019-04-23T13:29:04.971Z,18.81
2019-04-23T13:31:50.167Z,19.38
2019-04-23T13:35:23.051Z,18.17
2019-04-23T13:38:19.555Z,17.94
2019-04-23T13:44:36.095Z,18.79
2019-04-23T13:54:07.232Z,19.58
2019-04-23T14:00:36.895Z,20.24
2019-04-23T14:03:35.503Z,19.90
2019-04-23T14:06:59.520Z,20.09
2019-04-23T14:10:00.556Z,20.11
2019-04-23T14:16:11.634Z,19.65
2019-04-23T14:19:23.310Z,19.98
2019-04-23T14:22:47.702Z,20.58
2019-04-23T14:25:31.465Z,21.10
2019-04-23T14:28:41.899Z,20.94
2019-04-23T14:31:53.712Z,20.95
2019-04-23T14:35:12.961Z,20.64
2019-04-23T14:38:27.510Z,21.59
2019-04-23T14:44:36.446Z,21.87
2019-04-23T14:47:52.433Z,21.38
2019-04-23T14:51:09.872Z,21.91
2019-04-23T14:54:15.882Z,22.49
2019-04-23T14:57:31.703Z,22.86
2019-04-23T15:00:33.492Z,22.52
2019-04-23T15:10:08.514Z,21.82
2019-04-23T15:13:06.884Z,22.79
2019-04-23T15:19:36.865Z,22.91
2019-04-23T15:22:57.789Z,22.56
2019-04-23T15:26:22.595Z,23.11
2019-04-23T15:28:43.161Z,23.22
2019-04-23T15:32:18.661Z,23.26
2019-04-23T15:35:29.523Z,23.25
2019-04-23T15:45:01.572Z,23.14
2019-04-23T15:48:11.853Z,23.94
2019-04-23T15:51:22.922Z,23.68
2019-04-23T15:54:25.394Z,23.68
2019-04-23T16:01:17.322Z,24.55
2019-04-23T16:03:57.584Z,25.83
2019-04-23T16:07:04.579Z,25.33
2019-04-23T16:10:49.157Z,25.32
2019-04-23T16:14:04.781Z,24.77
2019-04-23T16:17:02.128Z,25.26
2019-04-23T16:23:26.392Z,25.20
2019-04-23T16:26:37.060Z,25.67
2019-04-23T16:29:54.198Z,25.69
2019-04-23T16:33:08.782Z,25.43
2019-04-23T16:42:29.866Z,25.78
2019-04-23T16:45:41.482Z,26.22
2019-04-23T16:49:06.771Z,26.36
2019-04-23T16:52:01.970Z,26.26
2019-04-23T16:55:07.487Z,26.67
2019-04-23T16:58:31.248Z,26.89
2019-04-23T17:01:21.026Z,26.79
2019-04-23T17:07:46.355Z,27.25
2019-04-23T17:11:04.453Z,27.84
2019-04-23T17:14:01.311Z,27.84
2019-04-23T17:16:59.841Z,28.23
2019-04-23T17:20:21.922Z,28.90
2019-04-23T17:26:30.208Z,29.77
2019-04-23T17:29:41.973Z,30.94
2019-04-23T17:33:07.875Z,29.85
2019-04-23T17:39:28.521Z,30.10
2019-04-23T17:43:14.767Z,30.60
2019-04-23T17:46:27.373Z,32.48
2019-04-23T17:49:15.621Z,32.48
2019-04-23T17:52:26.626Z,30.89
2019-04-23T17:55:46.277Z,31.38
2019-04-23T17:58:43.752Z,30.95
2019-04-23T18:02:21.387Z,30.93
2019-04-23T18:05:06.197Z,30.50
2019-04-23T18:08:13.810Z,30.50
2019-04-23T18:14:21.499Z,31.79
2019-04-23T18:21:16.073Z,33.17
2019-04-23T18:24:22.748Z,33.15
2019-04-23T18:27:23.574Z,32.14
2019-04-23T18:31:11.194Z,32.55
2019-04-23T18:37:23.721Z,31.51
2019-04-23T18:40:28.491Z,31.51
2019-04-23T18:43:50.678Z,31.78
2019-04-23T18:46:49.048Z,32.48
2019-04-23T18:49:59.265Z,33.00
2019-04-23T18:53:09.604Z,33.27
2019-04-23T18:59:30.740Z,35.85
2019-04-23T19:02:58.103Z,35.85
2019-04-23T19:13:42.146Z,36.96
2019-04-23T19:16:36.146Z,37.15
2019-04-23T19:19:41.954Z,37.50
2019-04-23T19:22:56.391Z,38.00
2019-04-23T19:25:49.787Z,39.08
2019-04-23T19:29:06.529Z,39.32
2019-04-23T19:32:23.927Z,40.93
2019-04-23T19:35:41.901Z,40.58
2019-04-23T19:38:43.800Z,40.52
2019-04-23T19:41:59.501Z,43.58
2019-04-23T19:48:02.754Z,45.41
2019-04-23T19:57:35.657Z,47.67
2019-04-23T20:00:51.995Z,45.73
2019-04-23T20:03:52.482Z,44.96
2019-04-23T20:07:05.580Z,44.02
2019-04-23T20:09:51.767Z,43.87
2019-04-23T20:13:01.518Z,45.42
2019-04-23T20:19:23.765Z,45.69
2019-04-23T20:22:34.032Z,45.37
2019-04-23T20:26:05.572Z,45.77
2019-04-23T20:32:28.952Z,44.71
2019-04-23T20:45:06.016Z,45.13
2019-04-23T20:48:12.762Z,45.12
2019-04-23T20:51:18.757Z,45.69
2019-04-23T20:54:37.101Z,45.35
2019-04-23T21:01:09.680Z,47.67
2019-04-23T21:04:13.258Z,48.40
2019-04-23T21:07:16.003Z,47.90
2019-04-23T21:13:50.715Z,47.04
2019-04-23T21:16:41.232Z,47.23
2019-04-23T21:20:00.935Z,47.70
2019-04-23T21:23:04.697Z,47.07
2019-04-23T21:25:58.846Z,49.07
2019-04-23T21:29:13.542Z,50.31
2019-04-23T21:32:33.263Z,50.19
2019-04-23T21:36:07.262Z,49.87
2019-04-23T21:39:13.612Z,50.24
2019-04-23T21:42:22.400Z,50.57
2019-04-23T21:45:31.913Z,50.23
2019-04-23T21:48:56.130Z,52.88
2019-04-23T22:01:24.463Z,55.53
2019-04-23T22:04:47.616Z,54.61
2019-04-23T22:07:49.773Z,55.95
2019-04-23T22:11:00.457Z,57.00
2019-04-23T22:14:06.217Z,56.94
2019-04-23T22:17:03.024Z,57.35
2019-04-23T22:20:21.366Z,58.92
2019-04-23T22:23:18.597Z,57.65
2019-04-23T22:26:37.847Z,58.31
2019-04-23T22:29:40.094Z,58.30
2019-04-23T22:33:02.628Z,58.90
2019-04-23T22:36:04.641Z,59.54
2019-04-23T22:39:03.144Z,60.21
2019-04-23T22:42:21.465Z,59.62
2019-04-23T22:48:36.158Z,60.83
2019-04-23T22:51:46.275Z,62.03
2019-04-23T22:54:57.274Z,58.97
2019-04-23T23:01:19.976Z,61.33
2019-04-23T23:04:34.964Z,62.31
2019-04-23T23:07:38.968Z,62.71
2019-04-23T23:10:46.145Z,61.71
2019-04-23T23:14:09.143Z,62.42
2019-04-23T23:17:09.149Z,62.03
2019-04-23T23:20:13.956Z,62.37
2019-04-23T23:26:24.238Z,61.60
2019-04-23T23:29:42.581Z,61.07
2019-04-23T23:32:49.162Z,61.58
2019-04-23T23:35:53.732Z,62.31
2019-04-23T23:42:11.096Z,62.70
2019-04-23T23:48:20.078Z,61.97
2019-04-23T23:51:57.345Z,61.57
2019-04-23T23:54:36.151Z,62.60
2019-04-23T23:57:51.164Z,62.51
